createdAt,value
2022-11-24T00:01:20.292Z,3.09
2022-11-24T00:06:25.088Z,3.12
2022-11-24T00:11:33.303Z,3.20
2022-11-24T00:16:37.417Z,2.94
2022-11-24T00:21:39.728Z,2.94
2022-11-24T00:26:41.926Z,2.97
2022-11-24T00:31:44.268Z,2.93
2022-11-24T00:36:46.695Z,2.63
2022-11-24T00:41:48.848Z,2.56
2022-11-24T00:46:51.031Z,2.55
2022-11-24T00:51:53.310Z,2.76
2022-11-24T00:56:55.504Z,2.46
2022-11-24T01:01:57.709Z,2.61
2022-11-24T01:06:59.877Z,2.51
2022-11-24T01:12:02.084Z,2.53
2022-11-24T01:17:04.374Z,2.61
2022-11-24T01:22:06.604Z,2.53
2022-11-24T01:27:09.156Z,2.38
2022-11-24T01:32:11.210Z,2.39
2022-11-24T01:37:13.274Z,2.40
2022-11-24T01:42:18.679Z,2.33
2022-11-24T01:47:36.683Z,2.23
2022-11-24T01:52:45.121Z,2.16
2022-11-24T01:57:56.787Z,2.36
2022-11-24T02:02:59.895Z,2.22
2022-11-24T02:08:03.300Z,1.96
2022-11-24T02:13:05.771Z,2.15
2022-11-24T02:18:08.060Z,2.20
2022-11-24T02:23:21.729Z,2.21
2022-11-24T02:28:27.287Z,2.12
2022-11-24T02:33:30.040Z,1.99
2022-11-24T02:38:34.089Z,2.20
2022-11-24T02:43:40.255Z,2.04
2022-11-24T02:48:42.886Z,1.94
2022-11-24T02:53:45.194Z,2.05
2022-11-24T02:58:47.238Z,1.99
2022-11-24T03:03:49.460Z,2.00
2022-11-24T03:08:51.740Z,1.97
2022-11-24T03:13:54.018Z,2.20
2022-11-24T03:18:56.121Z,1.94
2022-11-24T03:23:58.184Z,1.94
2022-11-24T03:29:00.420Z,1.88
2022-11-24T03:34:02.711Z,1.62
2022-11-24T03:39:05.223Z,1.60
2022-11-24T03:44:07.295Z,1.80
2022-11-24T03:49:10.117Z,1.85
2022-11-24T03:54:12.453Z,1.59
2022-11-24T03:59:14.720Z,1.70
2022-11-24T04:04:16.850Z,1.61
2022-11-24T04:09:18.887Z,1.63
2022-11-24T04:14:21.304Z,1.37
2022-11-24T04:19:23.825Z,1.55
2022-11-24T04:24:26.085Z,1.68
2022-11-24T04:29:28.216Z,1.50
2022-11-24T04:34:30.289Z,1.65
2022-11-24T04:39:32.567Z,1.53
2022-11-24T04:44:34.947Z,1.54
2022-11-24T04:49:37.561Z,1.38
2022-11-24T04:54:39.710Z,1.42
2022-11-24T04:59:41.854Z,1.45
2022-11-24T05:04:48.577Z,1.34
2022-11-24T05:10:09.061Z,1.45
2022-11-24T05:15:11.638Z,1.50
2022-11-24T05:20:13.751Z,1.42
2022-11-24T05:25:21.264Z,1.30
2022-11-24T05:30:23.601Z,1.57
2022-11-24T05:35:26.007Z,1.40
2022-11-24T05:40:28.604Z,1.18
2022-11-24T05:45:34.376Z,1.23
2022-11-24T05:50:37.019Z,1.52
2022-11-24T05:55:40.580Z,1.56
2022-11-24T06:00:42.929Z,1.45
2022-11-24T06:05:47.388Z,1.61
2022-11-24T06:10:49.626Z,1.64
2022-11-24T06:15:51.875Z,1.61
2022-11-24T06:21:09.688Z,1.82
2022-11-24T06:26:21.540Z,1.89
2022-11-24T06:31:23.941Z,1.76
2022-11-24T06:36:26.858Z,1.74
2022-11-24T06:41:29.028Z,2.14
2022-11-24T06:46:31.578Z,2.39
2022-11-24T06:51:33.879Z,2.57
2022-11-24T06:56:39.172Z,2.95
2022-11-24T07:01:44.018Z,2.99
2022-11-24T07:06:49.836Z,3.50
2022-11-24T07:11:52.170Z,4.90
2022-11-24T07:16:54.409Z,10.38
2022-11-24T07:21:57.335Z,16.45
2022-11-24T07:26:59.810Z,19.83
2022-11-24T07:32:05.468Z,19.82
2022-11-24T07:37:07.904Z,19.74
2022-11-24T07:42:11.590Z,19.32
2022-11-24T07:47:13.787Z,17.73
2022-11-24T07:52:16.155Z,17.58
2022-11-24T07:57:18.395Z,14.38
2022-11-24T08:02:20.514Z,12.65
2022-11-24T08:07:22.733Z,11.32
2022-11-24T08:12:25.114Z,9.96
2022-11-24T08:17:28.597Z,9.02
2022-11-24T08:22:30.658Z,8.51
2022-11-24T08:27:32.898Z,7.60
2022-11-24T08:32:35.232Z,7.33
2022-11-24T08:37:37.331Z,6.60
2022-11-24T08:42:40.147Z,7.16
2022-11-24T08:47:46.070Z,7.09
2022-11-24T08:52:48.518Z,7.13
2022-11-24T08:57:50.563Z,6.93
2022-11-24T09:02:55.162Z,6.24
2022-11-24T09:07:58.652Z,6.26
2022-11-24T09:13:01.000Z,6.33
2022-11-24T09:18:03.042Z,6.22
2022-11-24T09:23:05.033Z,6.73
2022-11-24T09:28:07.271Z,6.78
2022-11-24T09:33:09.753Z,6.89
2022-11-24T09:38:13.692Z,6.61
2022-11-24T09:44:00.315Z,6.73
2022-11-24T09:49:05.431Z,6.27
2022-11-24T09:54:27.002Z,6.12
2022-11-24T09:59:29.328Z,6.19
2022-11-24T10:04:40.592Z,6.59
2022-11-24T10:10:11.592Z,6.56
2022-11-24T10:15:21.953Z,6.92
2022-11-24T10:20:51.989Z,6.35
2022-11-24T10:25:58.460Z,6.45
2022-11-24T10:31:24.101Z,6.56
2022-11-24T10:36:58.595Z,6.87
2022-11-24T10:42:07.950Z,7.02
2022-11-24T10:47:23.036Z,6.93
2022-11-24T10:52:28.973Z,7.06
2022-11-24T10:57:34.443Z,7.00
2022-11-24T11:02:40.594Z,6.87
2022-11-24T11:07:42.984Z,7.20
2022-11-24T11:12:46.048Z,7.21
2022-11-24T11:17:50.697Z,6.88
2022-11-24T11:22:54.755Z,6.31
2022-11-24T11:28:19.879Z,6.78
2022-11-24T11:38:53.436Z,6.48
2022-11-24T11:44:10.696Z,6.19
2022-11-24T11:49:13.816Z,6.36
2022-11-24T11:54:41.594Z,6.18
2022-11-24T12:00:20.490Z,6.64
2022-11-24T12:05:35.166Z,6.74
2022-11-24T12:11:05.715Z,6.76
2022-11-24T12:16:15.139Z,6.50
2022-11-24T12:21:27.854Z,6.63
2022-11-24T12:26:51.226Z,6.80
2022-11-24T12:32:08.472Z,6.76
2022-11-24T12:37:23.630Z,6.54
2022-11-24T12:43:00.122Z,6.79
2022-11-24T12:48:36.947Z,6.64
2022-11-24T12:53:40.458Z,6.69
2022-11-24T12:59:00.316Z,6.71
2022-11-24T13:04:31.077Z,6.81
2022-11-24T13:09:33.467Z,6.48
2022-11-24T13:14:38.266Z,6.79
2022-11-24T13:19:40.565Z,6.59
2022-11-24T13:24:45.106Z,6.56
2022-11-24T13:29:49.994Z,6.27
2022-11-24T13:34:58.070Z,6.52
2022-11-24T13:40:18.023Z,6.34
2022-11-24T13:45:39.203Z,6.63
2022-11-24T13:50:50.833Z,6.44
2022-11-24T13:55:59.382Z,6.29
2022-11-24T14:01:13.816Z,6.20
2022-11-24T14:06:42.537Z,6.30
2022-11-24T14:11:55.608Z,6.36
2022-11-24T14:17:28.860Z,6.43
2022-11-24T14:22:40.336Z,6.20
2022-11-24T14:27:42.672Z,6.38
2022-11-24T14:33:02.745Z,6.37
2022-11-24T14:38:06.445Z,6.33
2022-11-24T14:43:35.360Z,6.55
2022-11-24T14:48:39.824Z,6.42
2022-11-24T14:53:43.887Z,6.49
2022-11-24T14:58:46.068Z,6.04
2022-11-24T15:09:48.552Z,6.33
2022-11-24T15:14:54.833Z,6.46
2022-11-24T15:20:07.849Z,6.51
2022-11-24T15:25:33.858Z,6.53
2022-11-24T15:30:36.988Z,6.45
2022-11-24T15:35:39.309Z,6.46
2022-11-24T15:40:44.718Z,6.13
2022-11-24T15:45:47.002Z,6.05
2022-11-24T15:50:50.062Z,5.79
2022-11-24T15:55:52.732Z,5.92
2022-11-24T16:00:55.126Z,5.70
2022-11-24T16:05:57.648Z,5.79
2022-11-24T16:10:59.645Z,5.88
2022-11-24T16:16:02.261Z,6.05
2022-11-24T16:21:04.672Z,6.00
2022-11-24T16:26:07.380Z,5.88
2022-11-24T16:31:09.590Z,5.90
2022-11-24T16:36:11.723Z,5.83
2022-11-24T16:41:14.674Z,5.83
2022-11-24T16:46:25.123Z,5.66
2022-11-24T16:51:33.003Z,5.61
2022-11-24T16:56:36.832Z,5.51
2022-11-24T17:01:40.516Z,5.63
2022-11-24T17:06:50.377Z,5.84
2022-11-24T17:11:54.469Z,5.99
2022-11-24T17:16:56.871Z,6.04
2022-11-24T17:21:59.416Z,5.99
2022-11-24T17:27:01.554Z,6.10
2022-11-24T17:32:03.894Z,6.07
2022-11-24T17:37:06.164Z,6.12
2022-11-24T17:42:14.251Z,6.14
2022-11-24T17:47:16.520Z,5.86
2022-11-24T17:52:19.123Z,5.91
2022-11-24T17:57:21.253Z,6.06
2022-11-24T18:02:23.608Z,5.94
2022-11-24T18:07:25.773Z,5.88
2022-11-24T18:12:28.096Z,5.52
2022-11-24T18:17:30.411Z,5.76
2022-11-24T18:22:57.725Z,5.41
2022-11-24T18:27:54.819Z,5.65
2022-11-24T18:32:58.746Z,5.38
2022-11-24T18:38:00.806Z,5.30
2022-11-24T18:43:02.825Z,5.52
2022-11-24T18:48:05.330Z,5.63
2022-11-24T18:53:07.497Z,5.66
2022-11-24T18:58:09.586Z,5.52
2022-11-24T19:03:11.604Z,5.35
2022-11-24T19:08:13.889Z,4.63
2022-11-24T19:13:16.056Z,4.55
2022-11-24T19:18:21.378Z,4.51
2022-11-24T19:23:24.979Z,4.49
2022-11-24T19:28:27.232Z,4.38
2022-11-24T19:33:30.067Z,4.71
2022-11-24T19:38:33.167Z,4.62
2022-11-24T19:43:35.959Z,4.68
2022-11-24T19:48:40.406Z,4.86
2022-11-24T19:53:43.444Z,4.50
2022-11-24T19:58:46.815Z,4.71
2022-11-24T20:03:55.629Z,4.87
2022-11-24T20:09:00.588Z,4.90
2022-11-24T20:14:03.710Z,5.04
2022-11-24T20:19:10.781Z,4.93
2022-11-24T20:24:15.810Z,4.97
2022-11-24T20:29:19.153Z,4.95
2022-11-24T20:34:22.085Z,4.85
2022-11-24T20:39:27.957Z,4.94
2022-11-24T20:44:30.543Z,5.05
2022-11-24T20:49:33.265Z,4.76
2022-11-24T20:54:35.598Z,4.74
2022-11-24T20:59:37.948Z,5.04
2022-11-24T21:04:40.181Z,5.24
2022-11-24T21:09:44.894Z,5.12
2022-11-24T21:14:47.280Z,5.04
2022-11-24T21:19:49.343Z,5.17
2022-11-24T21:24:51.371Z,5.21
2022-11-24T21:29:53.677Z,5.25
2022-11-24T21:34:55.899Z,5.37
2022-11-24T21:39:58.046Z,5.65
2022-11-24T21:45:02.168Z,5.80
2022-11-24T21:50:08.117Z,6.02
2022-11-24T22:00:46.708Z,5.77
2022-11-24T22:06:00.712Z,5.63
2022-11-24T22:11:29.945Z,5.96
2022-11-24T22:16:35.019Z,5.83
2022-11-24T22:21:37.458Z,6.14
2022-11-24T22:26:39.707Z,6.24
2022-11-24T22:31:41.940Z,6.23
2022-11-24T22:36:44.135Z,6.27
2022-11-24T22:41:46.506Z,6.27
2022-11-24T22:46:48.774Z,6.35
2022-11-24T22:51:50.989Z,6.43
2022-11-24T22:56:53.140Z,6.48
2022-11-24T23:01:55.209Z,6.40
2022-11-24T23:06:57.365Z,6.37
2022-11-24T23:12:02.243Z,6.31
2022-11-24T23:17:04.388Z,6.41
2022-11-24T23:22:06.508Z,6.37
2022-11-24T23:27:08.822Z,6.56
2022-11-24T23:32:11.705Z,6.39
2022-11-24T23:37:13.747Z,6.54
2022-11-24T23:42:16.004Z,6.58
2022-11-24T23:47:18.202Z,6.35
2022-11-24T23:52:20.442Z,6.38
2022-11-24T23:57:23.352Z,6.55
